FCO weather

Leonardo da Vinci–Fiumicino Airport
Rome, Lazio, Italy

Public forecast

Using degrees Celsius for public forecast. Weather courtesy of forecast.io.

METAR (pilot weather report)

Retrieved 2017/04/23 09:20 UTC (31 minutes ago):

LIRF 230920Z VRB07KT 9999 FEW035 17/08 Q1020 NOSIG

TAF (pilot weather forecast)

Retrieved 2017/04/23 06:24 UTC (3 hours ago):

TAF LIRF 230500Z 2306/2412 VRB05KT CAVOK BECMG 2309/2312 25013KT BECMG 2318/2321 06008KT BECMG 2406/2409 16012KT